Hlavní strana
METAR-TAF:

METAR-TAF

Letiště :

Glasgow, Montana, Spojené státy americké

zeměpisná šířka: 48-12-50N, zeměpisná délka: 106-37-17W, výška: 699 m

Aktuální stav počasí

Zpráva byla vytvořena před 20 minutami, v 22:53 UTC
Jihojihozápadní vítr 7 kt
Teplota 22°C
Vlhkost vzduchu 19%
Tlak 1022 hPa
Viditelnost: 16.1 km
Jasno

METAR: KGGW 172253Z AUTO 21007KT 10SM CLR 22/M03 A3018 RMK AO2 SLP226 T02171033

Čas: 17:13 (23:13 UTC)

Předpověď počasí

Zpráva byla vytvořena před 5 hodinami a 53 minutami, v 17:20 UTC
Předpověď platná od 17 v 18 UTC do 18 v 18 UTC
vítr z různých směrů 5 kt
Viditelnost: 10 km
Jasno
Od 18 v 0300 UTC
Jihovýchodní vítr 7 kt
Viditelnost: 10 km
Jasno

TAF: KGGW 171720Z 1718/1818 VRB05KT P6SM SKC FM180300 13007KT P6SM SKC

Stav a předpovědi počasí z více než 4 000 letišť (zprávy METAR a TAF).

Červené a žluté tečky na mapě představují dostupné meteorologické stanice.

Když kurzor umístíte na tečku, zobrazí se název stanice.

Pak kliknutím zobrazíte stav a předpověď počasí.

Chcete-li změnit mapu, kliknutím na zelené tlačítko se znaménkem +mapu přiblížíte, kliknutím na zelené tlačítko se znaménkem – mapu oddálíte a kliknutím na zelené šipky přejdete na sousední mapy.


METAR-TAF: